Time;durP1;ratioP1;P1;durP2;ratioP2;P2;SDS_P1;SDS_P2;PMS_P1;PMS_P2;Temp;Humidity;BMP_temperature;BMP_pressure;BME280_temperature;BME280_humidity;BME280_pressure;Samples;Min_cycle;Max_cycle;Signal;HPM_P1;HPM_P2
2023/08/03 00:00:02;;;;;;;2.92;0.30;;;;;;;13.86;58.45;98919.31;4991447;28;20033;-71
2023/08/03 00:02:37;;;;;;;8.98;0.75;;;;;;;13.79;58.59;98917.34;4988541;28;20033;-72
2023/08/03 00:05:03;;;;;;;5.90;0.45;;;;;;;13.84;58.66;98915.97;4993549;28;20033;-72
2023/08/03 00:07:29;;;;;;;5.85;0.85;;;;;;;13.87;58.79;98910.44;4990687;28;20623;-70
2023/08/03 00:09:55;;;;;;;4.80;0.77;;;;;;;13.82;58.59;98902.13;4993345;28;20026;-74
2023/08/03 00:12:22;;;;;;;6.85;0.60;;;;;;;13.85;58.67;98904.53;4993965;28;20025;-72
2023/08/03 00:14:49;;;;;;;4.80;0.52;;;;;;;13.85;58.53;98898.41;4975514;28;20044;-73
2023/08/03 00:17:14;;;;;;;2.10;0.70;;;;;;;13.81;59.04;98895.22;4990618;28;20206;-72
2023/08/03 00:19:42;;;;;;;1.52;0.50;;;;;;;13.77;58.83;98888.56;5005473;28;20120;-71
2023/08/03 00:22:08;;;;;;;6.72;1.10;;;;;;;13.76;58.80;98892.16;4992975;28;20406;-71
2023/08/03 00:24:34;;;;;;;2.83;0.30;;;;;;;13.66;59.29;98891.28;4971075;28;20254;-72
2023/08/03 00:26:59;;;;;;;3.38;0.50;;;;;;;13.66;59.36;98886.03;4993390;28;20446;-74
2023/08/03 00:29:25;;;;;;;2.92;0.32;;;;;;;13.75;59.12;98884.41;4974380;28;20125;-73
2023/08/03 00:31:50;;;;;;;5.68;0.70;;;;;;;13.79;59.00;98891.91;4990999;28;20117;-73
2023/08/03 00:34:16;;;;;;;4.10;0.38;;;;;;;13.73;58.80;98884.53;5001994;28;20237;-72
2023/08/03 00:36:41;;;;;;;1.85;0.20;;;;;;;13.61;59.56;98882.97;4993603;28;20076;-73
2023/08/03 00:39:07;;;;;;;4.25;0.30;;;;;;;13.62;59.38;98895.13;4990491;28;20205;-72
2023/08/03 00:41:33;;;;;;;2.22;1.05;;;;;;;13.50;59.82;98892.53;5007278;28;20065;-72
2023/08/03 00:43:58;;;;;;;2.83;0.75;;;;;;;13.55;59.84;98893.94;4992189;28;20068;-73
2023/08/03 00:46:24;;;;;;;2.22;0.20;;;;;;;13.65;59.33;98886.97;4991016;28;20586;-65
2023/08/03 00:48:49;;;;;;;0.63;0.30;;;;;;;13.58;59.38;98893.72;5007527;28;20065;-67
2023/08/03 00:51:16;;;;;;;3.55;0.50;;;;;;;13.60;59.39;98891.78;4985833;28;20034;-67
2023/08/03 00:53:45;;;;;;;4.30;0.93;;;;;;;13.67;59.46;98882.44;4988831;28;20045;-66
2023/08/03 00:56:14;;;;;;;6.38;0.32;;;;;;;13.67;59.46;98885.06;4990519;28;20158;-66
2023/08/03 00:58:39;;;;;;;6.38;0.32;;;;;;;13.57;59.70;98876.31;4988477;28;20124;-66
2023/08/03 01:01:06;;;;;;;4.13;0.40;;;;;;;13.60;59.27;98876.03;5004499;28;20121;-66
2023/08/03 01:03:32;;;;;;;1.15;0.20;;;;;;;13.61;59.44;98875.09;4988802;28;20046;-67
2023/08/03 01:05:58;;;;;;;3.05;0.28;;;;;;;13.60;59.39;98876.88;4993701;28;20562;-68
2023/08/03 01:08:24;;;;;;;1.85;0.40;;;;;;;13.53;59.60;98866.03;4992089;28;20399;-67
2023/08/03 01:10:51;;;;;;;3.25;0.55;;;;;;;13.56;59.76;98870.19;5006718;28;20034;-67
2023/08/03 01:13:17;;;;;;;2.47;0.50;;;;;;;13.68;59.78;98865.72;4988087;28;20077;-66
2023/08/03 01:15:42;;;;;;;2.28;0.40;;;;;;;13.64;59.75;98867.78;4991803;28;20042;-67
2023/08/03 01:18:08;;;;;;;5.15;0.20;;;;;;;13.81;59.16;98863.72;4989441;28;20038;-68
2023/08/03 01:20:37;;;;;;;1.45;0.40;;;;;;;13.75;59.50;98853.75;5004586;28;21247;-65
2023/08/03 01:23:04;;;;;;;2.22;0.47;;;;;;;13.67;59.67;98861.44;4968881;28;20080;-67
2023/08/03 01:25:34;;;;;;;1.88;0.30;;;;;;;13.76;59.43;98863.25;4990487;28;20484;-66
2023/08/03 01:28:00;;;;;;;1.38;0.20;;;;;;;13.86;58.93;98856.28;4991119;28;20401;-67
2023/08/03 01:30:26;;;;;;;2.92;0.60;;;;;;;13.81;59.29;98847.97;4991625;28;20033;-66
2023/08/03 01:32:51;;;;;;;0.68;0.20;;;;;;;13.81;59.22;98850.59;4974481;28;20331;-68
2023/08/03 01:35:17;;;;;;;3.80;0.40;;;;;;;13.87;59.26;98850.06;4972336;28;20048;-68
2023/08/03 01:37:43;;;;;;;5.70;0.50;;;;;;;13.76;59.20;98849.31;4991330;28;20049;-67
2023/08/03 01:40:12;;;;;;;1.33;0.30;;;;;;;13.77;59.33;98851.00;4987088;28;20045;-67
2023/08/03 01:42:38;;;;;;;3.95;0.20;;;;;;;13.79;58.84;98844.66;4987639;28;20038;-64
2023/08/03 01:45:07;;;;;;;5.75;0.47;;;;;;;13.69;59.37;98843.75;4987917;28;20033;-67
2023/08/03 01:47:33;;;;;;;4.18;0.20;;;;;;;13.72;59.26;98848.75;4990735;28;20037;-67
2023/08/03 01:49:59;;;;;;;3.45;0.40;;;;;;;13.80;59.50;98846.28;4988393;28;20022;-67
2023/08/03 01:52:25;;;;;;;7.82;0.65;;;;;;;13.74;59.41;98844.19;5004345;28;20570;-65
2023/08/03 01:54:51;;;;;;;4.50;0.85;;;;;;;13.81;59.15;98847.13;4991408;28;20046;-67
2023/08/03 01:57:17;;;;;;;5.47;0.40;;;;;;;13.85;59.17;98844.13;4990241;28;20117;-67
2023/08/03 01:59:44;;;;;;;1.63;0.40;;;;;;;13.83;59.25;98846.06;4987788;28;20038;-66
2023/08/03 02:02:10;;;;;;;4.78;0.35;;;;;;;13.87;59.13;98842.16;5005104;28;20504;-67
2023/08/03 02:04:35;;;;;;;4.78;0.82;;;;;;;13.84;59.06;98841.63;4986877;28;20048;-66
2023/08/03 02:07:14;;;;;;;3.15;0.40;;;;;;;13.76;59.54;98838.81;4990227;28;20121;-66
2023/08/03 02:09:39;;;;;;;3.03;0.30;;;;;;;13.85;59.09;98841.50;4988215;28;20049;-66
2023/08/03 02:12:05;;;;;;;2.92;0.30;;;;;;;14.00;58.94;98838.50;4986262;28;20361;-67
2023/08/03 02:14:31;;;;;;;2.00;0.32;;;;;;;14.05;58.78;98845.00;5004497;28;20443;-66
2023/08/03 02:16:56;;;;;;;0.90;0.30;;;;;;;13.99;58.98;98839.47;4989054;28;20103;-66
2023/08/03 02:19:22;;;;;;;4.78;0.77;;;;;;;14.02;58.81;98833.94;4986690;28;21622;-66
2023/08/03 02:21:47;;;;;;;2.72;0.47;;;;;;;14.01;58.88;98837.53;4978084;28;20038;-66
2023/08/03 02:24:14;;;;;;;1.70;0.20;;;;;;;13.99;58.83;98834.22;4981086;28;20061;-65
2023/08/03 02:26:40;;;;;;;1.77;0.30;;;;;;;14.01;59.02;98832.28;4992413;28;20041;-65
2023/08/03 02:29:05;;;;;;;3.65;0.40;;;;;;;14.00;58.69;98835.88;4989703;28;20196;-65
2023/08/03 02:31:31;;;;;;;2.53;0.70;;;;;;;14.00;59.15;98835.88;4993708;28;20037;-65
2023/08/03 02:33:56;;;;;;;1.67;0.30;;;;;;;14.02;58.75;98829.53;4994400;28;20055;-66
2023/08/03 02:36:29;;;;;;;4.18;0.30;;;;;;;14.02;59.02;98829.53;4989268;28;20495;-66
2023/08/03 02:38:58;;;;;;;4.43;0.52;;;;;;;14.01;59.06;98827.88;4992657;28;20741;-66
2023/08/03 02:41:24;;;;;;;2.67;0.43;;;;;;;14.02;59.02;98829.53;5006438;28;20030;-68
2023/08/03 02:43:49;;;;;;;1.38;0.30;;;;;;;14.02;59.14;98828.69;4991937;28;20054;-68
2023/08/03 02:46:19;;;;;;;2.35;0.43;;;;;;;14.08;59.05;98825.53;4990280;28;20054;-66
2023/08/03 02:48:45;;;;;;;2.85;0.35;;;;;;;13.91;59.11;98832.25;4974272;28;20124;-67
2023/08/03 02:51:11;;;;;;;2.20;0.60;;;;;;;13.83;59.32;98832.91;4991315;28;20057;-67
2023/08/03 02:53:38;;;;;;;5.25;0.85;;;;;;;13.59;60.00;98833.22;4991710;28;20037;-65
2023/08/03 02:56:06;;;;;;;1.77;0.88;;;;;;;13.62;60.27;98829.50;4993364;28;20455;-66
2023/08/03 02:58:42;;;;;;;3.70;0.47;;;;;;;13.66;60.50;98828.28;5005505;28;20471;-65
2023/08/03 03:01:14;;;;;;;0.90;0.50;;;;;;;13.81;60.10;98832.22;4994444;28;20038;-64
2023/08/03 03:03:40;;;;;;;2.25;0.40;;;;;;;13.76;60.14;98833.56;4991354;28;20285;-66
2023/08/03 03:06:06;;;;;;;0.85;0.40;;;;;;;13.77;60.51;98830.81;5009114;28;20104;-67
2023/08/03 03:08:34;;;;;;;5.32;1.10;;;;;;;13.62;60.55;98822.44;4991905;28;20576;-65
2023/08/03 03:11:00;;;;;;;2.05;0.40;;;;;;;13.20;62.16;98837.38;4995602;28;20037;-67
2023/08/03 03:13:25;;;;;;;3.92;0.90;;;;;;;13.58;60.95;98828.09;5006996;28;20045;-68
2023/08/03 03:15:51;;;;;;;1.33;0.40;;;;;;;13.53;61.05;98829.28;4991049;28;20030;-70
2023/08/03 03:18:17;;;;;;;2.97;0.95;;;;;;;13.61;61.09;98833.94;4992702;28;20041;-72
2023/08/03 03:20:45;;;;;;;1.00;0.57;;;;;;;13.71;60.73;98836.59;4972557;28;20072;-71
2023/08/03 03:23:11;;;;;;;1.00;0.70;;;;;;;13.60;60.95;98836.66;4991436;28;20052;-71
2023/08/03 03:25:38;;;;;;;3.33;0.85;;;;;;;13.70;60.81;98834.94;4990848;28;20034;-72
2023/08/03 03:28:06;;;;;;;1.40;0.70;;;;;;;13.78;60.68;98842.97;5009542;28;20042;-66
2023/08/03 03:30:35;;;;;;;3.15;0.60;;;;;;;13.82;60.43;98839.13;4990499;28;20519;-66
2023/08/03 03:33:00;;;;;;;3.35;1.10;;;;;;;13.77;60.51;98840.50;4990820;28;20041;-66
2023/08/03 03:35:26;;;;;;;2.15;0.90;;;;;;;13.75;60.55;98843.25;4973884;28;20046;-65
2023/08/03 03:37:52;;;;;;;1.55;0.95;;;;;;;13.63;61.01;98842.50;5006259;28;20592;-67
2023/08/03 03:40:22;;;;;;;4.88;1.25;;;;;;;13.65;61.26;98842.34;4989033;28;20038;-65
2023/08/03 03:42:50;;;;;;;4.15;1.10;;;;;;;13.68;60.89;98842.94;4992804;28;20037;-66
2023/08/03 03:45:16;;;;;;;6.57;1.67;;;;;;;13.63;61.07;98849.53;4987362;28;20471;-65
2023/08/03 03:47:42;;;;;;;3.55;1.80;;;;;;;13.79;60.86;98849.06;4982333;28;20058;-65
2023/08/03 03:50:10;;;;;;;3.67;1.95;;;;;;;13.85;60.80;98851.16;4974317;28;20063;-66
2023/08/03 03:52:38;;;;;;;2.70;1.15;;;;;;;13.84;60.69;98847.69;4988816;28;20496;-66
2023/08/03 03:55:04;;;;;;;4.03;1.17;;;;;;;13.90;60.72;98851.59;4975816;28;20085;-66
2023/08/03 03:57:32;;;;;;;1.50;0.47;;;;;;;13.91;60.54;98861.97;5002654;28;20045;-66
2023/08/03 03:59:58;;;;;;;2.22;1.10;;;;;;;13.93;60.74;98857.41;4991989;28;20029;-67
2023/08/03 04:02:24;;;;;;;3.40;1.00;;;;;;;13.97;60.95;98858.00;4990190;28;20544;-66
2023/08/03 04:04:53;;;;;;;4.82;1.10;;;;;;;14.03;60.42;98861.88;4993314;28;20541;-67
2023/08/03 04:07:20;;;;;;;2.40;1.25;;;;;;;13.97;60.42;98857.16;4989990;28;20078;-66
2023/08/03 04:09:46;;;;;;;2.47;1.50;;;;;;;13.92;60.48;98866.25;4991196;28;20044;-66
2023/08/03 04:12:13;;;;;;;3.33;1.25;;;;;;;13.98;60.51;98864.06;4990384;28;20033;-66
2023/08/03 04:14:39;;;;;;;3.45;1.35;;;;;;;14.04;60.62;98869.63;4985361;28;20293;-67
2023/08/03 04:17:05;;;;;;;3.10;1.98;;;;;;;14.07;60.40;98873.78;4976233;28;20381;-66
2023/08/03 04:19:31;;;;;;;3.63;1.45;;;;;;;14.08;60.44;98876.28;5004509;28;20034;-66
2023/08/03 04:21:56;;;;;;;2.60;1.10;;;;;;;14.12;60.33;98869.78;4993640;28;20030;-67
2023/08/03 04:24:22;;;;;;;3.85;1.85;;;;;;;14.14;60.03;98867.88;4987363;28;20050;-70
2023/08/03 04:26:48;;;;;;;2.15;1.40;;;;;;;14.18;60.28;98871.03;4991088;28;20578;-68
2023/08/03 04:29:20;;;;;;;1.40;1.05;;;;;;;14.20;60.41;98874.38;4986153;28;20042;-66
2023/08/03 04:31:46;;;;;;;6.35;1.08;;;;;;;14.28;60.37;98881.59;4987378;28;21090;-67
2023/08/03 04:34:14;;;;;;;4.55;1.02;;;;;;;14.36;60.45;98879.94;4997715;28;20053;-66
2023/08/03 04:36:43;;;;;;;2.70;1.05;;;;;;;14.43;60.30;98880.25;4993235;28;20489;-68
2023/08/03 04:39:08;;;;;;;2.42;1.20;;;;;;;14.53;59.97;98885.56;4989990;28;20045;-66
2023/08/03 04:41:36;;;;;;;5.68;1.52;;;;;;;14.64;60.20;98889.88;4986018;28;20357;-68
2023/08/03 04:44:02;;;;;;;3.72;1.13;;;;;;;14.64;59.75;98895.97;4988726;28;20048;-67
2023/08/03 04:46:30;;;;;;;3.85;1.00;;;;;;;14.47;60.09;98893.97;4989383;28;20405;-72
2023/08/03 04:48:56;;;;;;;2.75;1.15;;;;;;;14.56;60.20;98899.25;4990939;28;20036;-73
2023/08/03 04:51:22;;;;;;;5.30;1.02;;;;;;;14.71;59.56;98912.84;4971825;28;20029;-67
2023/08/03 04:53:51;;;;;;;2.00;0.98;;;;;;;14.87;59.32;98908.84;4988407;28;20038;-68
2023/08/03 04:56:18;;;;;;;1.60;0.82;;;;;;;14.81;59.50;98909.41;4989842;28;20574;-71
2023/08/03 04:58:43;;;;;;;1.75;1.10;;;;;;;14.62;59.73;98915.47;5003972;28;20181;-71
2023/08/03 05:01:09;;;;;;;1.75;0.90;;;;;;;14.76;59.56;98915.88;4990962;28;20415;-69
2023/08/03 05:03:35;;;;;;;1.55;0.50;;;;;;;14.86;59.33;98912.47;4984853;28;20439;-70
2023/08/03 05:06:03;;;;;;;2.45;0.68;;;;;;;14.81;59.43;98923.38;4995638;28;20137;-71
2023/08/03 05:08:28;;;;;;;1.50;0.70;;;;;;;14.93;59.17;98924.09;5003882;28;20081;-71
2023/08/03 05:10:53;;;;;;;3.00;0.45;;;;;;;14.87;59.50;98925.47;5005692;28;20496;-71
2023/08/03 05:13:21;;;;;;;2.25;0.47;;;;;;;14.71;59.60;98935.69;4988230;28;20044;-68
2023/08/03 05:15:47;;;;;;;3.22;0.93;;;;;;;14.69;59.91;98935.81;4992190;28;20442;-70
2023/08/03 05:18:15;;;;;;;4.03;0.75;;;;;;;14.86;59.26;98942.22;4990293;28;20045;-68
2023/08/03 05:20:41;;;;;;;1.27;0.30;;;;;;;14.88;59.48;98947.31;5001029;28;20026;-68
2023/08/03 05:23:08;;;;;;;1.75;0.50;;;;;;;14.83;59.40;98942.47;4988039;28;20591;-66
2023/08/03 05:25:34;;;;;;;1.15;0.30;;;;;;;14.49;59.99;98950.69;4984277;28;20037;-66
2023/08/03 05:28:07;;;;;;;1.23;0.40;;;;;;;14.67;59.85;98948.25;4990725;28;20041;-68
2023/08/03 05:30:33;;;;;;;2.63;0.35;;;;;;;14.91;59.59;98955.78;4989398;28;20083;-69
2023/08/03 05:33:02;;;;;;;0.80;0.38;;;;;;;14.72;59.92;98956.59;5005092;28;20038;-72
2023/08/03 05:35:28;;;;;;;0.77;0.32;;;;;;;14.62;60.00;98963.63;4991006;28;20268;-69
2023/08/03 05:37:54;;;;;;;0.88;0.47;;;;;;;14.75;59.84;98966.84;5003938;28;20111;-70
2023/08/03 05:40:23;;;;;;;1.00;0.70;;;;;;;14.73;60.16;98960.88;4990386;28;20507;-70
2023/08/03 05:42:48;;;;;;;0.95;0.40;;;;;;;15.04;59.82;98963.44;4987760;28;20041;-67
2023/08/03 05:45:38;;;;;;;2.97;0.60;;;;;;;15.02;59.57;98965.38;4992396;28;20038;-74
2023/08/03 05:48:12;;;;;;;1.17;0.40;;;;;;;14.62;60.08;98968.06;5004702;28;20144;-69
2023/08/03 05:50:53;;;;;;;1.75;0.52;;;;;;;14.99;59.52;98968.25;4986367;28;20041;-69
2023/08/03 05:53:21;;;;;;;1.40;1.30;;;;;;;15.03;59.39;98972.28;4988941;28;20636;-66
2023/08/03 05:55:47;;;;;;;1.90;0.65;;;;;;;14.97;59.60;98978.09;4988230;28;20563;-68
2023/08/03 05:58:14;;;;;;;2.72;0.80;;;;;;;15.25;59.36;98971.22;4995069;28;20311;-69
2023/08/03 06:00:42;;;;;;;1.98;0.80;;;;;;;15.03;59.34;98974.09;4991426;28;20026;-68
2023/08/03 06:03:18;;;;;;;4.97;0.80;;;;;;;15.34;59.31;98982.72;4995987;28;20068;-68
2023/08/03 06:05:48;;;;;;;1.65;0.50;;;;;;;15.34;59.27;98990.63;5007014;28;20037;-67
2023/08/03 06:08:24;;;;;;;0.85;0.40;;;;;;;15.31;59.02;98996.16;4992553;28;20460;-69
2023/08/03 06:10:51;;;;;;;1.63;0.60;;;;;;;15.34;58.89;99001.16;4990090;28;20215;-68
2023/08/03 06:13:24;;;;;;;1.00;0.30;;;;;;;15.51;58.54;98992.56;4992023;28;20057;-68
2023/08/03 06:15:49;;;;;;;2.30;0.30;;;;;;;15.53;58.29;98995.91;4991276;28;20037;-68
2023/08/03 06:18:19;;;;;;;1.70;0.40;;;;;;;14.84;59.69;99007.28;4989961;28;20463;-67
2023/08/03 06:20:49;;;;;;;2.58;0.50;;;;;;;15.17;59.13;99011.38;4991475;28;20034;-67
2023/08/03 06:23:25;;;;;;;3.38;0.40;;;;;;;14.93;59.41;99018.78;4985424;28;20129;-67
2023/08/03 06:25:53;;;;;;;1.13;0.30;;;;;;;15.13;59.10;99017.03;4990994;28;20234;-66
2023/08/03 06:28:23;;;;;;;0.70;0.50;;;;;;;15.05;59.45;99022.97;4990325;28;20037;-67
2023/08/03 06:30:53;;;;;;;1.33;0.52;;;;;;;15.23;59.39;99022.34;5005124;28;21436;-68
2023/08/03 06:33:24;;;;;;;1.77;0.50;;;;;;;15.52;59.26;99031.06;4992126;28;20054;-67
2023/08/03 06:35:53;;;;;;;2.30;0.40;;;;;;;15.03;59.29;99035.41;4988469;28;20492;-67
2023/08/03 06:38:22;;;;;;;4.15;0.40;;;;;;;15.51;59.09;99032.06;5003623;28;20428;-67
2023/08/03 06:40:49;;;;;;;2.78;0.60;;;;;;;15.91;58.28;99031.06;4992504;28;20052;-67
2023/08/03 06:43:17;;;;;;;0.88;0.30;;;;;;;16.03;57.74;99033.59;4981071;28;20440;-67
2023/08/03 06:45:44;;;;;;;4.47;0.47;;;;;;;15.93;57.48;99042.31;4990418;28;20034;-67
2023/08/03 06:48:10;;;;;;;0.85;0.43;;;;;;;16.50;57.10;99050.22;4993487;28;20085;-67
2023/08/03 06:50:36;;;;;;;3.10;0.50;;;;;;;16.30;56.35;99054.72;4988874;28;20041;-66
2023/08/03 06:53:02;;;;;;;3.95;0.30;;;;;;;16.70;56.73;99061.53;5007364;28;20038;-68
2023/08/03 06:55:31;;;;;;;3.75;0.30;;;;;;;16.88;55.82;99059.00;5003509;28;20416;-68
2023/08/03 06:58:00;;;;;;;2.75;0.30;;;;;;;17.04;55.56;99061.00;4986129;28;20042;-68
2023/08/03 07:00:28;;;;;;;3.90;0.50;;;;;;;16.52;55.69;99063.28;4993410;28;20069;-67
2023/08/03 07:02:54;;;;;;;1.95;0.20;;;;;;;16.34;55.12;99066.66;4989264;28;20045;-68
2023/08/03 07:05:19;;;;;;;0.68;0.15;;;;;;;16.39;56.22;99067.06;4989870;28;20034;-67
2023/08/03 07:07:45;;;;;;;1.92;0.20;;;;;;;16.79;54.88;99065.16;4987785;28;20046;-67
2023/08/03 07:10:13;;;;;;;0.30;0.10;;;;;;;17.28;55.17;99072.81;4992566;28;20224;-68
2023/08/03 07:12:42;;;;;;;12.10;0.30;;;;;;;18.21;53.23;99071.56;4987759;28;20045;-67
2023/08/03 07:15:11;;;;;;;0.73;0.20;;;;;;;18.27;51.19;99075.38;4996444;28;20120;-69
2023/08/03 07:17:36;;;;;;;3.05;0.30;;;;;;;19.04;49.74;99073.66;4985729;28;20037;-68
2023/08/03 07:20:02;;;;;;;1.20;0.50;;;;;;;19.00;49.85;99077.59;4975538;28;20041;-69
2023/08/03 07:22:29;;;;;;;1.00;0.10;;;;;;;19.21;48.36;99079.84;4988436;28;20030;-67
2023/08/03 07:24:54;;;;;;;0.40;0.10;;;;;;;18.61;50.63;99087.84;4987143;28;20063;-68
2023/08/03 07:27:20;;;;;;;3.05;0.38;;;;;;;20.15;47.64;99087.56;4993147;28;20042;-67
2023/08/03 07:29:45;;;;;;;0.77;0.10;;;;;;;19.46;47.10;99088.69;4984177;28;20215;-66
2023/08/03 07:32:12;;;;;;;1.42;0.20;;;;;;;18.88;49.60;99098.25;4992882;28;20367;-68
2023/08/03 07:34:38;;;;;;;0.57;0.10;;;;;;;18.26;51.50;99100.16;5000705;28;20505;-67
2023/08/03 07:37:04;;;;;;;1.15;0.05;;;;;;;17.69;52.30;99118.16;4993250;28;20358;-68
2023/08/03 07:39:29;;;;;;;1.73;0.20;;;;;;;16.99;54.67;99116.03;4991761;28;20134;-69
2023/08/03 07:41:58;;;;;;;0.90;0.20;;;;;;;16.99;54.99;99123.94;5004032;28;20053;-69
2023/08/03 07:44:23;;;;;;;0.93;0.20;;;;;;;16.81;55.40;99129.97;4988429;28;20747;-68
2023/08/03 07:46:48;;;;;;;1.15;0.20;;;;;;;16.92;55.49;99130.78;4992217;28;20029;-68
2023/08/03 07:49:14;;;;;;;0.22;0.03;;;;;;;16.19;55.88;99144.50;4994470;28;20148;-66
2023/08/03 07:51:40;;;;;;;1.95;0.20;;;;;;;16.53;55.62;99149.31;4984687;28;20040;-67
2023/08/03 07:54:05;;;;;;;1.15;0.30;;;;;;;16.38;56.05;99160.31;4989600;28;20611;-68
2023/08/03 07:56:32;;;;;;;1.65;0.10;;;;;;;16.58;55.55;99150.56;4988581;28;20046;-68
2023/08/03 07:59:00;;;;;;;0.50;0.10;;;;;;;16.79;55.55;99153.03;4989166;28;20037;-67
2023/08/03 08:01:25;;;;;;;1.20;0.20;;;;;;;16.95;54.59;99162.16;4984645;28;20053;-68
2023/08/03 08:03:53;;;;;;;1.02;0.10;;;;;;;17.33;53.93;99161.16;4982023;28;20042;-68
2023/08/03 08:06:20;;;;;;;0.50;0.10;;;;;;;17.52;53.39;99164.72;4990530;28;20104;-67
2023/08/03 08:08:50;;;;;;;0.28;0.00;;;;;;;16.89;54.39;99163.56;4987453;28;20345;-66
2023/08/03 08:11:17;;;;;;;0.93;0.10;;;;;;;17.06;54.28;99161.16;4989274;28;20045;-68
2023/08/03 08:13:43;;;;;;;0.52;0.10;;;;;;;16.49;55.39;99179.56;4985205;28;20056;-68
2023/08/03 08:16:11;;;;;;;2.40;0.20;;;;;;;16.67;55.78;99174.44;4992476;28;20087;-68
2023/08/03 08:18:37;;;;;;;1.85;0.20;;;;;;;16.76;55.82;99178.88;4985316;28;20030;-66
2023/08/03 08:21:11;;;;;;;0.45;0.25;;;;;;;16.89;55.67;99183.84;4990673;28;20176;-66
2023/08/03 08:23:37;;;;;;;0.55;0.10;;;;;;;17.00;55.08;99196.84;4982452;28;20046;-65
2023/08/03 08:26:09;;;;;;;0.57;0.10;;;;;;;17.15;55.02;99199.88;4988415;28;20385;-67
2023/08/03 08:28:37;;;;;;;1.10;0.20;;;;;;;17.71;54.64;99196.28;4986993;28;20053;-66
2023/08/03 08:31:02;;;;;;;0.75;0.10;;;;;;;19.26;52.49;99199.38;4988073;28;20473;-67
2023/08/03 08:33:27;;;;;;;0.68;0.10;;;;;;;21.59;47.43;99208.91;4986095;28;20061;-66
2023/08/03 08:35:56;;;;;;;0.77;0.20;;;;;;;22.37;44.10;99213.25;4984850;28;20045;-66
2023/08/03 08:38:21;;;;;;;2.53;0.10;;;;;;;23.35;41.50;99217.66;4986711;28;20041;-67
2023/08/03 08:40:47;;;;;;;0.43;0.10;;;;;;;24.59;37.35;99222.06;4985005;28;20026;-66
2023/08/03 08:43:12;;;;;;;0.93;0.08;;;;;;;24.94;36.64;99220.25;4990334;28;20041;-66
2023/08/03 08:45:38;;;;;;;0.50;0.10;;;;;;;24.54;36.62;99227.97;4983961;28;20514;-67
2023/08/03 08:48:07;;;;;;;1.35;0.10;;;;;;;24.50;34.93;99234.72;4987655;28;20038;-67
2023/08/03 08:50:33;;;;;;;1.85;0.10;;;;;;;23.57;38.14;99237.19;4984262;28;20659;-67
2023/08/03 08:53:03;;;;;;;1.65;0.00;;;;;;;23.71;37.40;99243.53;4981006;28;20147;-66
2023/08/03 08:55:30;;;;;;;0.35;0.00;;;;;;;25.54;33.67;99228.66;5002512;28;20050;-67
2023/08/03 08:57:58;;;;;;;1.52;0.00;;;;;;;25.91;34.14;99239.06;4984665;28;21823;-65
2023/08/03 09:00:26;;;;;;;0.77;0.00;;;;;;;24.28;36.06;99246.41;4988681;28;20037;-67
2023/08/03 09:03:00;;;;;;;0.63;0.10;;;;;;;22.92;37.57;99254.72;4988012;28;20042;-66
2023/08/03 09:05:27;;;;;;;0.50;0.10;;;;;;;20.55;41.07;99267.16;4988197;28;20068;-65
2023/08/03 09:08:01;;;;;;;1.27;0.10;;;;;;;19.42;44.31;99272.78;4981787;28;21703;-66
2023/08/03 09:10:26;;;;;;;2.05;0.47;;;;;;;18.71;46.11;99270.31;4986703;28;20041;-66
2023/08/03 09:12:52;;;;;;;0.47;0.10;;;;;;;18.47;47.87;99283.19;4987032;28;20060;-65
2023/08/03 09:15:17;;;;;;;0.68;0.10;;;;;;;20.34;43.83;99280.94;4987501;28;20042;-67
2023/08/03 09:17:46;;;;;;;0.77;0.10;;;;;;;20.36;43.14;99286.91;4971199;28;20052;-65
2023/08/03 09:20:25;;;;;;;2.08;0.20;;;;;;;21.16;42.87;99291.56;4991111;28;20033;-65
2023/08/03 09:22:51;;;;;;;1.05;0.28;;;;;;;22.94;39.88;99276.69;4995150;28;20037;-67
2023/08/03 09:25:16;;;;;;;1.40;0.10;;;;;;;23.59;37.42;99285.84;4985687;28;20033;-67
2023/08/03 09:27:50;;;;;;;1.17;0.10;;;;;;;23.46;38.26;99282.19;4986294;28;20256;-67
2023/08/03 09:30:16;;;;;;;1.02;0.20;;;;;;;22.58;37.80;99295.09;4994297;28;20030;-68
2023/08/03 09:32:43;;;;;;;1.52;0.10;;;;;;;21.42;39.19;99293.16;4990674;28;20044;-67
2023/08/03 09:35:23;;;;;;;5.45;0.22;;;;;;;20.80;43.03;99310.50;5005256;28;20116;-68
2023/08/03 09:37:50;;;;;;;2.80;0.20;;;;;;;20.23;45.13;99318.38;5007240;28;20045;-67
2023/08/03 09:40:17;;;;;;;1.48;0.10;;;;;;;19.29;47.43;99323.53;4987327;28;20048;-67
2023/08/03 09:42:44;;;;;;;3.03;0.30;;;;;;;18.62;47.75;99324.97;5007556;28;20131;-68
2023/08/03 09:45:13;;;;;;;0.73;0.10;;;;;;;18.56;47.44;99331.69;4992186;28;20408;-68
2023/08/03 09:47:42;;;;;;;5.30;0.32;;;;;;;19.20;48.96;99327.13;4986053;28;20588;-68
2023/08/03 09:50:09;;;;;;;2.08;0.20;;;;;;;20.01;45.59;99333.84;4988939;28;20042;-66
2023/08/03 09:52:53;;;;;;;4.68;0.22;;;;;;;21.46;45.94;99337.00;4993423;28;20046;-67
2023/08/03 09:55:27;;;;;;;1.42;0.20;;;;;;;21.64;44.27;99345.63;4991886;28;20468;-67
2023/08/03 09:57:56;;;;;;;2.13;0.10;;;;;;;21.39;42.68;99344.00;4988214;28;20053;-67
2023/08/03 10:00:22;;;;;;;2.90;0.20;;;;;;;20.50;43.62;99349.94;4992295;28;20489;-67
2023/08/03 10:02:55;;;;;;;0.75;0.10;;;;;;;20.59;45.13;99360.56;4989785;28;20041;-66
2023/08/03 10:05:23;;;;;;;2.05;0.10;;;;;;;21.35;43.05;99357.63;5005665;28;20068;-67
2023/08/03 10:07:59;;;;;;;2.85;0.20;;;;;;;21.30;42.11;99354.63;5004090;28;20045;-67
2023/08/03 10:10:29;;;;;;;4.45;0.15;;;;;;;20.37;44.08;99368.16;4990830;28;20384;-66
2023/08/03 10:12:59;;;;;;;2.38;0.30;;;;;;;19.96;44.44;99370.63;4987464;28;20046;-67
2023/08/03 10:15:25;;;;;;;3.55;0.20;;;;;;;19.17;45.31;99377.75;4990965;28;20033;-66
2023/08/03 10:17:52;;;;;;;2.30;0.10;;;;;;;19.53;45.88;99377.66;5002132;28;20125;-67
2023/08/03 10:20:19;;;;;;;2.17;0.20;;;;;;;20.22;43.76;99383.06;4992250;28;20029;-67
2023/08/03 10:23:17;;;;;;;3.75;0.30;;;;;;;21.38;41.93;99390.16;4990310;28;20037;-67
2023/08/03 10:25:54;;;;;;;2.50;0.20;;;;;;;21.64;42.18;99382.84;4990740;28;20030;-66
2023/08/03 10:28:21;;;;;;;2.85;0.40;;;;;;;22.85;40.29;99389.66;4989759;28;20038;-67
2023/08/03 10:31:14;;;;;;;2.53;0.20;;;;;;;23.37;38.30;99394.22;4986727;28;20459;-68
2023/08/03 10:33:46;;;;;;;4.13;0.30;;;;;;;23.28;38.65;99386.50;5005577;28;20042;-67
2023/08/03 10:36:30;;;;;;;1.38;0.40;;;;;;;21.67;39.85;99393.16;4988238;28;20053;-67
2023/08/03 10:38:56;;;;;;;2.47;0.10;;;;;;;22.15;39.87;99396.66;4987531;28;20061;-67
2023/08/03 10:41:27;;;;;;;3.67;0.20;;;;;;;22.00;38.37;99398.34;4989598;28;20037;-67
2023/08/03 10:44:04;;;;;;;3.35;0.20;;;;;;;22.47;38.46;99402.84;5003594;28;21269;-67
2023/08/03 10:46:44;;;;;;;2.63;0.20;;;;;;;22.67;38.13;99415.69;4992627;28;20034;-66
2023/08/03 10:49:18;;;;;;;2.65;0.30;;;;;;;23.07;38.40;99416.44;5001367;28;20046;-67
2023/08/03 10:52:16;;;;;;;1.45;0.20;;;;;;;22.21;38.01;99416.44;4988348;28;20080;-66
2023/08/03 10:54:42;;;;;;;1.40;0.15;;;;;;;22.51;36.07;99421.94;4982225;28;20168;-67
2023/08/03 10:57:19;;;;;;;3.78;0.35;;;;;;;21.87;37.68;99427.31;4991988;28;20053;-66
2023/08/03 10:59:46;;;;;;;2.63;0.50;;;;;;;21.51;39.18;99433.03;4989330;28;20632;-66
2023/08/03 11:02:14;;;;;;;5.03;1.30;;;;;;;21.43;40.52;99439.16;4988212;28;20503;-68
2023/08/03 11:04:41;;;;;;;2.33;0.20;;;;;;;22.04;39.59;99442.22;4988679;28;20255;-67
2023/08/03 11:07:11;;;;;;;4.18;0.22;;;;;;;23.04;38.27;99438.13;4988172;28;20741;-66
2023/08/03 11:09:37;;;;;;;4.32;0.52;;;;;;;22.64;37.49;99435.50;4987069;28;20673;-66
2023/08/03 11:12:07;;;;;;;0.82;0.10;;;;;;;23.35;37.12;99444.22;4991300;28;20107;-68
2023/08/03 11:14:35;;;;;;;2.47;0.17;;;;;;;23.29;36.85;99444.94;5001209;28;20520;-65
2023/08/03 11:17:00;;;;;;;7.20;0.73;;;;;;;22.24;37.37;99452.50;4991546;28;20042;-68
2023/08/03 11:19:32;;;;;;;3.15;0.20;;;;;;;21.88;39.34;99466.22;4971651;28;20042;-67
2023/08/03 11:21:59;;;;;;;2.90;0.30;;;;;;;20.60;43.03;99476.38;4988336;28;20101;-67
2023/08/03 11:24:28;;;;;;;1.40;0.38;;;;;;;18.96;47.49;99483.13;5002726;28;20045;-68
2023/08/03 11:26:54;;;;;;;6.25;0.55;;;;;;;17.94;50.98;99487.44;5002886;28;20034;-68
2023/08/03 11:29:19;;;;;;;2.60;0.70;;;;;;;17.63;52.07;99498.22;4988543;28;20030;-66
2023/08/03 11:31:45;;;;;;;7.78;0.95;;;;;;;18.19;52.80;99498.41;4984992;28;20048;-67
2023/08/03 11:34:10;;;;;;;6.47;1.35;;;;;;;19.22;50.85;99499.13;4985648;28;20165;-68
2023/08/03 11:36:36;;;;;;;3.88;1.02;;;;;;;20.40;49.92;99500.50;4988494;28;20029;-67